createdAt,value
2023-05-21T00:00:30.249Z,10.15
2023-05-21T00:02:59.462Z,10.07
2023-05-21T00:05:26.933Z,9.52
2023-05-21T00:07:55.052Z,9.77
2023-05-21T00:10:22.473Z,9.88
2023-05-21T00:12:49.798Z,10.20
2023-05-21T00:15:17.063Z,9.43
2023-05-21T00:17:46.082Z,9.73
2023-05-21T00:20:13.593Z,10.13
2023-05-21T00:22:42.569Z,9.93
2023-05-21T00:25:10.530Z,10.18
2023-05-21T00:27:38.031Z,10.40
2023-05-21T00:30:05.808Z,9.98
2023-05-21T00:32:33.128Z,10.73
2023-05-21T00:35:00.372Z,11.05
2023-05-21T00:37:29.879Z,9.85
2023-05-21T00:39:59.693Z,10.85
2023-05-21T00:42:27.609Z,10.45
2023-05-21T00:44:54.751Z,11.02
2023-05-21T00:47:22.298Z,11.32
2023-05-21T00:49:52.949Z,11.10
2023-05-21T00:52:21.978Z,11.63
2023-05-21T00:54:52.523Z,11.13
2023-05-21T00:57:23.527Z,10.90
2023-05-21T00:59:52.314Z,10.60
2023-05-21T01:02:19.929Z,11.50
2023-05-21T01:04:47.201Z,10.90
2023-05-21T01:07:14.691Z,10.77
2023-05-21T01:09:43.222Z,10.68
2023-05-21T01:12:10.849Z,11.30
2023-05-21T01:14:38.492Z,11.07
2023-05-21T01:17:06.430Z,11.05
2023-05-21T01:19:35.649Z,10.73
2023-05-21T01:22:07.896Z,10.98
2023-05-21T01:24:35.240Z,11.68
2023-05-21T01:27:03.441Z,10.73
2023-05-21T01:29:30.768Z,10.88
2023-05-21T01:31:57.894Z,11.75
2023-05-21T01:34:28.124Z,11.40
2023-05-21T01:37:01.592Z,11.10
2023-05-21T01:39:30.641Z,11.48
2023-05-21T01:41:58.290Z,11.57
2023-05-21T01:44:26.659Z,11.07
2023-05-21T01:46:54.708Z,11.48
2023-05-21T01:49:22.748Z,11.30
2023-05-21T01:51:50.799Z,11.23
2023-05-21T01:54:17.958Z,11.60
2023-05-21T01:56:45.218Z,12.32
2023-05-21T01:59:12.370Z,11.05
2023-05-21T02:01:39.669Z,11.90
2023-05-21T02:04:06.983Z,11.55
2023-05-21T02:06:35.912Z,11.90
2023-05-21T02:09:03.878Z,11.30
2023-05-21T02:11:31.367Z,11.60
2023-05-21T02:13:58.665Z,12.45
2023-05-21T02:16:26.143Z,12.30
2023-05-21T02:18:57.377Z,11.65
2023-05-21T02:21:24.703Z,12.05
2023-05-21T02:23:51.928Z,11.77
2023-05-21T02:26:19.107Z,11.93
2023-05-21T02:28:46.266Z,11.18
2023-05-21T02:31:13.555Z,11.35
2023-05-21T02:33:41.875Z,11.40
2023-05-21T02:36:13.133Z,11.55
2023-05-21T02:38:43.633Z,11.43
2023-05-21T02:41:11.631Z,11.30
2023-05-21T02:43:38.869Z,11.95
2023-05-21T02:46:07.714Z,11.05
2023-05-21T02:48:35.082Z,12.55
2023-05-21T02:51:02.343Z,12.23
2023-05-21T02:53:29.529Z,11.98
2023-05-21T02:55:56.922Z,11.52
2023-05-21T02:58:25.271Z,11.45
2023-05-21T03:00:53.706Z,12.65
2023-05-21T03:03:21.456Z,12.27
2023-05-21T03:05:49.062Z,13.30
2023-05-21T03:08:16.999Z,11.85
2023-05-21T03:10:44.264Z,12.73
2023-05-21T03:13:11.548Z,12.13
2023-05-21T03:15:39.460Z,12.05
2023-05-21T03:18:07.016Z,12.93
2023-05-21T03:20:34.357Z,12.38
2023-05-21T03:23:04.332Z,11.95
2023-05-21T03:25:31.654Z,12.43
2023-05-21T03:27:58.844Z,12.10
2023-05-21T03:30:26.009Z,12.75
2023-05-21T03:32:53.288Z,12.32
2023-05-21T03:35:20.568Z,12.35
2023-05-21T03:37:47.755Z,11.57
2023-05-21T03:40:14.921Z,11.82
2023-05-21T03:42:42.136Z,12.32
2023-05-21T03:45:09.542Z,12.55
2023-05-21T03:47:36.738Z,12.27
2023-05-21T03:50:05.681Z,11.77
2023-05-21T03:52:32.899Z,12.32
2023-05-21T03:55:00.177Z,12.65
2023-05-21T03:57:27.508Z,12.43
2023-05-21T03:59:54.718Z,11.82
2023-05-21T04:02:23.069Z,11.48
2023-05-21T04:04:51.681Z,12.32
2023-05-21T04:07:19.245Z,13.38
2023-05-21T04:09:47.001Z,11.95
2023-05-21T04:12:14.594Z,12.73
2023-05-21T04:14:42.020Z,12.82
2023-05-21T04:17:09.811Z,12.95
2023-05-21T04:19:37.055Z,12.35
2023-05-21T04:22:04.428Z,11.50
2023-05-21T04:24:31.790Z,11.90
2023-05-21T04:27:01.512Z,11.07
2023-05-21T04:29:29.964Z,11.27
2023-05-21T04:31:57.266Z,11.38
2023-05-21T04:34:24.880Z,11.60
2023-05-21T04:36:52.075Z,11.27
2023-05-21T04:39:19.301Z,11.38
2023-05-21T04:41:46.512Z,11.50
2023-05-21T04:44:15.134Z,11.23
2023-05-21T04:46:42.824Z,10.77
2023-05-21T04:49:10.446Z,12.15
2023-05-21T04:51:38.134Z,11.85
2023-05-21T04:54:05.358Z,11.38
2023-05-21T04:56:32.764Z,11.57
2023-05-21T04:59:00.078Z,11.30
2023-05-21T05:01:29.666Z,11.05
2023-05-21T05:03:57.131Z,11.18
2023-05-21T05:06:26.009Z,11.57
2023-05-21T05:08:53.202Z,10.80
2023-05-21T05:11:20.878Z,11.20
2023-05-21T05:13:48.065Z,11.05
2023-05-21T05:16:17.903Z,10.93
2023-05-21T05:18:45.282Z,11.25
2023-05-21T05:21:12.535Z,10.88
2023-05-21T05:23:39.730Z,10.80
2023-05-21T05:26:06.948Z,11.82
2023-05-21T05:28:34.160Z,11.25
2023-05-21T05:31:01.453Z,11.35
2023-05-21T05:33:28.732Z,11.10
2023-05-21T05:35:56.057Z,10.88
2023-05-21T05:38:23.275Z,11.60
2023-05-21T05:40:50.601Z,10.50
2023-05-21T05:43:17.834Z,10.75
2023-05-21T05:45:45.017Z,10.45
2023-05-21T05:48:12.957Z,10.75
2023-05-21T05:50:40.172Z,10.32
2023-05-21T05:53:07.382Z,10.10
2023-05-21T05:55:34.926Z,9.60
2023-05-21T05:58:02.350Z,10.23
2023-05-21T06:00:29.602Z,9.93
2023-05-21T06:02:56.980Z,9.15
2023-05-21T06:05:24.306Z,9.77
2023-05-21T06:07:51.526Z,9.05
2023-05-21T06:10:20.565Z,8.68
2023-05-21T06:12:47.895Z,10.05
2023-05-21T06:15:16.543Z,9.60
2023-05-21T06:17:43.835Z,9.07
2023-05-21T06:20:11.556Z,9.52
2023-05-21T06:22:38.965Z,8.55
2023-05-21T06:25:06.949Z,8.68
2023-05-21T06:27:34.258Z,9.55
2023-05-21T06:30:01.448Z,8.50
2023-05-21T06:32:28.792Z,8.50
2023-05-21T06:34:56.176Z,9.02
2023-05-21T06:37:25.271Z,8.38
2023-05-21T06:39:53.753Z,8.43
2023-05-21T06:42:21.442Z,8.20
2023-05-21T06:44:48.633Z,8.27
2023-05-21T06:47:15.943Z,9.15
2023-05-21T06:49:43.224Z,8.70
2023-05-21T06:52:11.268Z,8.40
2023-05-21T06:54:38.451Z,8.68
2023-05-21T06:57:06.063Z,8.73
2023-05-21T06:59:33.305Z,8.43
2023-05-21T07:02:02.399Z,8.38
2023-05-21T07:04:31.030Z,7.78
2023-05-21T07:06:58.393Z,7.88
2023-05-21T07:09:25.772Z,8.10
2023-05-21T07:11:55.731Z,8.13
2023-05-21T07:14:22.931Z,7.57
2023-05-21T07:16:50.257Z,8.90
2023-05-21T07:19:17.500Z,8.10
2023-05-21T07:21:44.758Z,7.22
2023-05-21T07:24:11.983Z,7.60
2023-05-21T07:26:39.230Z,7.85
2023-05-21T07:29:06.416Z,7.30
2023-05-21T07:31:33.713Z,7.68
2023-05-21T07:34:01.101Z,8.30
2023-05-21T07:36:28.513Z,7.93
2023-05-21T07:38:55.974Z,7.05
2023-05-21T07:41:23.181Z,7.40
2023-05-21T07:43:50.452Z,6.95
2023-05-21T07:46:17.755Z,6.90
2023-05-21T07:48:45.038Z,6.47
2023-05-21T07:51:12.298Z,6.88
2023-05-21T07:53:39.621Z,7.05
2023-05-21T07:56:06.974Z,7.25
2023-05-21T07:58:35.296Z,6.63
2023-05-21T08:01:02.835Z,6.60
2023-05-21T08:03:31.006Z,7.28
2023-05-21T08:05:58.437Z,6.78
2023-05-21T08:08:26.034Z,6.65
2023-05-21T08:10:53.283Z,6.10
2023-05-21T08:13:20.572Z,6.45
2023-05-21T08:15:51.241Z,6.80
2023-05-21T08:18:19.959Z,6.47
2023-05-21T08:20:48.331Z,6.47
2023-05-21T08:23:15.600Z,6.60
2023-05-21T08:25:42.780Z,6.47
2023-05-21T08:28:09.974Z,7.30
2023-05-21T08:30:37.319Z,6.55
2023-05-21T08:33:04.619Z,6.55
2023-05-21T08:35:31.968Z,6.38
2023-05-21T08:37:59.585Z,6.13
2023-05-21T08:40:26.815Z,6.70
2023-05-21T08:42:54.196Z,6.65
2023-05-21T08:45:22.381Z,6.20
2023-05-21T08:47:53.205Z,6.82
2023-05-21T08:50:20.552Z,6.55
2023-05-21T08:52:47.883Z,6.97
2023-05-21T08:55:15.190Z,5.93
2023-05-21T08:57:43.634Z,6.43
2023-05-21T09:00:11.871Z,6.75
2023-05-21T09:02:43.811Z,7.05
2023-05-21T09:05:11.476Z,6.40
2023-05-21T09:07:44.574Z,6.22
2023-05-21T09:10:13.715Z,6.65
2023-05-21T09:12:41.381Z,6.70
2023-05-21T09:15:08.799Z,6.65
2023-05-21T09:17:36.529Z,6.45
2023-05-21T09:20:15.176Z,7.25
2023-05-21T09:22:49.267Z,6.82
2023-05-21T09:25:17.609Z,6.93
2023-05-21T09:27:45.032Z,6.43
2023-05-21T09:30:13.461Z,6.72
2023-05-21T09:32:41.358Z,6.40
2023-05-21T09:35:15.864Z,6.32
2023-05-21T09:37:44.034Z,5.70
2023-05-21T09:40:11.777Z,5.63
2023-05-21T09:42:47.176Z,6.30
2023-05-21T09:45:18.756Z,6.38
2023-05-21T09:47:46.847Z,6.53
2023-05-21T09:50:14.533Z,9.40
2023-05-21T09:52:42.332Z,6.53
2023-05-21T09:55:13.226Z,6.78
2023-05-21T09:57:49.792Z,6.68
2023-05-21T10:00:19.102Z,6.25
2023-05-21T10:02:47.755Z,5.90
2023-05-21T10:05:16.041Z,5.38
2023-05-21T10:07:50.292Z,5.97
2023-05-21T10:10:19.762Z,6.05
2023-05-21T10:12:48.149Z,5.80
2023-05-21T10:15:17.353Z,5.65
2023-05-21T10:17:45.960Z,5.57
2023-05-21T10:20:13.394Z,6.03
2023-05-21T10:22:41.177Z,6.47
2023-05-21T10:25:09.095Z,6.20
2023-05-21T10:27:40.051Z,6.38
2023-05-21T10:30:07.634Z,6.38
2023-05-21T10:32:35.263Z,6.47
2023-05-21T10:35:03.053Z,6.18
2023-05-21T10:37:30.524Z,6.68
2023-05-21T10:39:57.869Z,6.60
2023-05-21T10:42:28.111Z,6.60
2023-05-21T10:45:01.431Z,6.35
2023-05-21T10:47:47.370Z,5.57
2023-05-21T10:50:27.670Z,6.45
2023-05-21T10:53:01.095Z,6.28
2023-05-21T10:55:34.304Z,6.18
2023-05-21T10:58:11.336Z,6.20
2023-05-21T11:00:38.932Z,5.72
2023-05-21T11:03:07.158Z,5.88
2023-05-21T11:05:53.306Z,6.10
2023-05-21T11:08:37.571Z,5.78
2023-05-21T11:11:05.248Z,5.65
2023-05-21T11:13:49.147Z,5.63
2023-05-21T11:16:16.960Z,5.75
2023-05-21T11:18:44.146Z,5.65
2023-05-21T11:21:12.478Z,5.70
2023-05-21T11:23:49.705Z,5.03
2023-05-21T11:26:21.602Z,5.20
2023-05-21T11:29:04.157Z,6.07
2023-05-21T11:31:38.794Z,4.97
2023-05-21T11:34:32.181Z,5.10
2023-05-21T11:37:23.217Z,5.30
2023-05-21T11:39:51.223Z,5.03
2023-05-21T11:42:31.748Z,5.15
2023-05-21T11:44:59.398Z,5.00
2023-05-21T11:47:27.570Z,5.22
2023-05-21T11:49:54.925Z,5.20
2023-05-21T11:52:22.267Z,5.00
2023-05-21T11:54:51.920Z,5.55
2023-05-21T11:57:19.883Z,5.35
2023-05-21T11:59:47.397Z,5.97
2023-05-21T12:02:21.627Z,5.22
2023-05-21T12:04:49.989Z,5.25
2023-05-21T12:07:19.130Z,4.90
2023-05-21T12:09:47.220Z,5.68
2023-05-21T12:12:18.865Z,5.05
2023-05-21T12:14:47.770Z,5.30
2023-05-21T12:17:25.002Z,5.70
2023-05-21T12:19:56.881Z,5.50
2023-05-21T12:22:24.707Z,5.43
2023-05-21T12:24:53.910Z,5.50
2023-05-21T12:27:22.216Z,5.13
2023-05-21T12:29:52.776Z,5.78
2023-05-21T12:32:20.744Z,5.13
2023-05-21T12:34:49.717Z,5.13
2023-05-21T12:37:23.992Z,5.53
2023-05-21T12:39:51.758Z,6.05
2023-05-21T12:42:40.138Z,5.55
2023-05-21T12:45:08.467Z,5.93
2023-05-21T12:47:35.888Z,5.60
2023-05-21T12:50:14.067Z,5.47
2023-05-21T12:52:44.937Z,6.13
2023-05-21T12:55:14.588Z,7.00
2023-05-21T12:57:43.910Z,8.95
2023-05-21T13:00:11.828Z,5.85
2023-05-21T13:02:40.374Z,6.15
2023-05-21T13:05:11.673Z,6.00
2023-05-21T13:07:41.217Z,5.97
2023-05-21T13:10:08.704Z,6.25
2023-05-21T13:12:36.355Z,5.97
2023-05-21T13:15:04.896Z,6.40
2023-05-21T13:17:32.287Z,6.40
2023-05-21T13:20:16.149Z,5.90
2023-05-21T13:22:46.819Z,6.32
2023-05-21T13:25:20.291Z,6.03
2023-05-21T13:27:48.456Z,6.07
2023-05-21T13:30:15.856Z,6.32
2023-05-21T13:32:43.710Z,6.20
2023-05-21T13:35:12.087Z,6.00
2023-05-21T13:37:40.095Z,6.10
2023-05-21T13:40:08.056Z,6.35
2023-05-21T13:42:37.717Z,6.10
2023-05-21T13:45:06.072Z,6.53
2023-05-21T13:47:33.638Z,6.22
2023-05-21T13:50:01.357Z,6.63
2023-05-21T13:52:28.587Z,7.15
2023-05-21T13:54:55.918Z,5.40
2023-05-21T13:57:23.163Z,6.35
2023-05-21T13:59:50.868Z,6.82
2023-05-21T14:02:18.297Z,6.15
2023-05-21T14:04:45.602Z,6.10
2023-05-21T14:07:12.890Z,5.80
2023-05-21T14:09:40.326Z,5.60
2023-05-21T14:12:07.607Z,5.80
2023-05-21T14:14:35.094Z,6.30
2023-05-21T14:17:02.324Z,5.25
2023-05-21T14:19:29.829Z,4.80
2023-05-21T14:21:57.182Z,4.68
2023-05-21T14:24:24.401Z,4.50
2023-05-21T14:26:51.645Z,4.03
2023-05-21T14:29:18.914Z,4.75
2023-05-21T14:31:46.407Z,5.22
2023-05-21T14:34:13.707Z,5.40
2023-05-21T14:36:41.028Z,5.53
2023-05-21T14:39:08.361Z,4.93
2023-05-21T14:41:39.834Z,5.63
2023-05-21T14:44:07.155Z,5.40
2023-05-21T14:46:34.554Z,5.97
2023-05-21T14:49:03.338Z,5.72
2023-05-21T14:51:31.609Z,5.85
2023-05-21T14:54:03.263Z,5.97
2023-05-21T14:56:30.629Z,5.35
2023-05-21T14:58:57.789Z,5.65
2023-05-21T15:01:25.089Z,5.75
2023-05-21T15:03:52.421Z,5.40
2023-05-21T15:06:19.661Z,5.10
2023-05-21T15:08:46.884Z,5.10
2023-05-21T15:11:14.117Z,5.07
2023-05-21T15:13:41.272Z,5.68
2023-05-21T15:16:08.594Z,5.40
2023-05-21T15:18:35.944Z,5.00
2023-05-21T15:21:03.315Z,5.60
2023-05-21T15:23:30.632Z,5.20
2023-05-21T15:25:57.946Z,5.30
2023-05-21T15:28:25.249Z,4.50
2023-05-21T15:30:52.500Z,5.20
2023-05-21T15:33:19.730Z,5.65
2023-05-21T15:35:47.106Z,4.30
2023-05-21T15:38:14.423Z,5.00
2023-05-21T15:40:42.032Z,4.80
2023-05-21T15:43:09.441Z,4.82
2023-05-21T15:45:36.895Z,5.57
2023-05-21T15:48:04.469Z,5.15
2023-05-21T15:50:31.718Z,6.10
2023-05-21T15:52:58.929Z,5.78
2023-05-21T15:55:26.149Z,5.85
2023-05-21T15:57:53.436Z,6.45
2023-05-21T16:00:20.592Z,6.10
2023-05-21T16:02:47.985Z,6.40
2023-05-21T16:05:15.425Z,5.90
2023-05-21T16:07:43.185Z,6.43
2023-05-21T16:10:10.776Z,6.45
2023-05-21T16:12:37.986Z,5.90
2023-05-21T16:15:05.585Z,6.18
2023-05-21T16:17:32.809Z,6.70
2023-05-21T16:20:00.102Z,6.28
2023-05-21T16:22:27.489Z,6.22
2023-05-21T16:24:55.709Z,5.70
2023-05-21T16:27:22.910Z,5.65
2023-05-21T16:29:50.104Z,6.32
2023-05-21T16:32:17.426Z,6.55
2023-05-21T16:34:44.952Z,6.40
2023-05-21T16:37:12.224Z,6.28
2023-05-21T16:39:39.479Z,5.70
2023-05-21T16:42:06.702Z,6.07
2023-05-21T16:44:33.911Z,6.32
2023-05-21T16:47:01.971Z,5.65
2023-05-21T16:49:29.142Z,5.63
2023-05-21T16:51:56.414Z,6.28
2023-05-21T16:54:23.673Z,6.15
2023-05-21T16:56:51.004Z,6.57
2023-05-21T16:59:18.228Z,6.35
2023-05-21T17:01:45.462Z,6.75
2023-05-21T17:04:12.731Z,6.88
2023-05-21T17:06:39.904Z,7.55
2023-05-21T17:09:07.131Z,7.60
2023-05-21T17:11:35.158Z,6.43
2023-05-21T17:14:02.410Z,6.90
2023-05-21T17:16:29.723Z,6.38
2023-05-21T17:18:56.979Z,6.60
2023-05-21T17:21:26.070Z,7.57
2023-05-21T17:23:53.286Z,6.63
2023-05-21T17:26:21.760Z,7.20
2023-05-21T17:28:48.968Z,7.43
2023-05-21T17:31:16.428Z,7.00
2023-05-21T17:33:43.707Z,7.32
2023-05-21T17:36:10.896Z,7.03
2023-05-21T17:38:38.125Z,6.90
2023-05-21T17:41:05.577Z,6.88
2023-05-21T17:43:32.904Z,7.43
2023-05-21T17:46:00.149Z,6.93
2023-05-21T17:48:27.412Z,7.05
2023-05-21T17:50:54.622Z,7.35
2023-05-21T17:53:22.831Z,6.63
2023-05-21T17:55:50.090Z,6.78
2023-05-21T17:58:17.262Z,7.18
2023-05-21T18:00:44.555Z,7.03
2023-05-21T18:03:11.896Z,7.15
2023-05-21T18:05:39.296Z,7.82
2023-05-21T18:08:07.074Z,7.20
2023-05-21T18:10:34.351Z,7.85
2023-05-21T18:13:01.588Z,7.82
2023-05-21T18:15:28.883Z,7.60
2023-05-21T18:17:56.265Z,7.10
2023-05-21T18:20:23.535Z,6.97
2023-05-21T18:22:50.784Z,7.15
2023-05-21T18:25:18.123Z,7.78
2023-05-21T18:27:46.234Z,7.78
2023-05-21T18:30:13.673Z,8.02
2023-05-21T18:32:40.958Z,7.95
2023-05-21T18:35:12.011Z,7.90
2023-05-21T18:37:44.315Z,7.97
2023-05-21T18:40:12.300Z,8.18
2023-05-21T18:42:39.743Z,8.25
2023-05-21T18:45:08.511Z,7.70
2023-05-21T18:47:35.957Z,8.98
2023-05-21T18:50:03.230Z,7.93
2023-05-21T18:52:30.441Z,8.40
2023-05-21T18:54:57.629Z,7.47
2023-05-21T18:57:24.861Z,7.82
2023-05-21T18:59:52.112Z,8.45
2023-05-21T19:02:19.404Z,7.70
2023-05-21T19:04:46.704Z,8.73
2023-05-21T19:07:15.807Z,8.82
2023-05-21T19:09:43.076Z,8.35
2023-05-21T19:12:10.507Z,9.18
2023-05-21T19:14:38.454Z,15.38
2023-05-21T19:17:06.533Z,29.77
2023-05-21T19:19:33.790Z,34.83
2023-05-21T19:22:01.065Z,11.38
2023-05-21T19:24:28.243Z,9.10
2023-05-21T19:26:55.635Z,9.18
2023-05-21T19:29:23.057Z,8.73
2023-05-21T19:31:50.625Z,9.52
2023-05-21T19:34:17.928Z,8.15
2023-05-21T19:36:52.792Z,9.13
2023-05-21T19:39:20.943Z,9.07
2023-05-21T19:41:48.142Z,8.75
2023-05-21T19:44:15.415Z,7.75
2023-05-21T19:46:42.661Z,8.73
2023-05-21T19:49:11.145Z,9.15
2023-05-21T19:51:38.401Z,8.63
2023-05-21T19:54:05.720Z,9.05
2023-05-21T19:56:32.857Z,9.70
2023-05-21T19:59:00.023Z,8.70
2023-05-21T20:01:29.026Z,9.65
2023-05-21T20:03:56.566Z,9.18
2023-05-21T20:06:23.859Z,9.43
2023-05-21T20:08:51.789Z,9.73
2023-05-21T20:11:19.267Z,9.50
2023-05-21T20:13:50.175Z,10.32
2023-05-21T20:16:18.411Z,9.82
2023-05-21T20:18:48.969Z,10.40
2023-05-21T20:21:20.209Z,10.20
2023-05-21T20:23:47.574Z,10.25
2023-05-21T20:26:15.463Z,10.20
2023-05-21T20:28:42.911Z,10.63
2023-05-21T20:31:11.245Z,10.00
2023-05-21T20:33:40.800Z,9.77
2023-05-21T20:36:08.221Z,10.23
2023-05-21T20:38:37.188Z,10.93
2023-05-21T20:41:05.189Z,9.85
2023-05-21T20:43:32.927Z,10.55
2023-05-21T20:46:00.277Z,10.85
2023-05-21T20:48:31.957Z,10.18
2023-05-21T20:51:00.276Z,10.73
2023-05-21T20:53:27.727Z,10.45
2023-05-21T20:55:55.063Z,10.50
2023-05-21T20:58:24.018Z,10.40
2023-05-21T21:00:51.473Z,9.90
2023-05-21T21:03:21.819Z,10.23
2023-05-21T21:05:49.207Z,11.35
2023-05-21T21:08:16.395Z,11.00
2023-05-21T21:10:46.704Z,10.63
2023-05-21T21:13:14.432Z,10.98
2023-05-21T21:15:43.680Z,10.73
2023-05-21T21:18:12.550Z,10.18
2023-05-21T21:20:41.285Z,10.40
2023-05-21T21:23:08.839Z,10.45
2023-05-21T21:25:36.220Z,10.10
2023-05-21T21:28:03.531Z,10.77
2023-05-21T21:30:30.883Z,10.18
2023-05-21T21:32:58.173Z,10.27
2023-05-21T21:35:25.442Z,11.00
2023-05-21T21:37:52.688Z,10.70
2023-05-21T21:40:19.831Z,10.13
2023-05-21T21:42:47.017Z,10.43
2023-05-21T21:45:14.240Z,9.85
2023-05-21T21:47:41.507Z,10.38
2023-05-21T21:50:09.007Z,10.77
2023-05-21T21:52:39.867Z,10.38
2023-05-21T21:55:08.840Z,10.15
2023-05-21T21:57:36.268Z,10.18
2023-05-21T22:00:11.147Z,9.85
2023-05-21T22:02:40.299Z,9.77
2023-05-21T22:05:08.731Z,10.27
2023-05-21T22:07:38.537Z,10.38
2023-05-21T22:10:06.308Z,10.13
2023-05-21T22:12:34.004Z,9.15
2023-05-21T22:15:05.778Z,10.68
2023-05-21T22:17:34.104Z,10.20
2023-05-21T22:20:01.635Z,10.52
2023-05-21T22:22:28.869Z,10.05
2023-05-21T22:24:56.524Z,10.25
2023-05-21T22:27:23.794Z,9.93
2023-05-21T22:29:51.068Z,10.13
2023-05-21T22:32:18.352Z,9.48
2023-05-21T22:34:45.822Z,10.95
2023-05-21T22:37:13.026Z,9.88
2023-05-21T22:39:40.299Z,10.77
2023-05-21T22:42:07.579Z,11.00
2023-05-21T22:44:34.933Z,10.05
2023-05-21T22:47:03.711Z,10.15
2023-05-21T22:49:32.724Z,10.80
2023-05-21T22:52:05.273Z,10.00
2023-05-21T22:54:33.074Z,10.57
2023-05-21T22:57:01.148Z,10.25
2023-05-21T22:59:32.863Z,10.50
2023-05-21T23:02:00.091Z,11.18
2023-05-21T23:04:43.293Z,10.50
2023-05-21T23:07:11.746Z,11.13
2023-05-21T23:09:39.356Z,10.63
2023-05-21T23:12:06.809Z,10.80
2023-05-21T23:14:34.049Z,10.40
2023-05-21T23:17:04.545Z,10.65
2023-05-21T23:19:32.880Z,10.25
2023-05-21T23:22:00.524Z,10.30
2023-05-21T23:24:29.406Z,10.65
2023-05-21T23:27:01.743Z,10.63
2023-05-21T23:29:29.501Z,10.82
2023-05-21T23:31:56.928Z,10.65
2023-05-21T23:34:24.851Z,11.57
2023-05-21T23:36:52.334Z,11.25
2023-05-21T23:39:19.525Z,10.95
2023-05-21T23:41:46.843Z,10.18
2023-05-21T23:44:15.443Z,11.18
2023-05-21T23:46:45.391Z,10.50
2023-05-21T23:49:12.586Z,10.70
2023-05-21T23:51:40.167Z,9.88
2023-05-21T23:54:08.211Z,10.88
2023-05-21T23:56:35.530Z,10.82
2023-05-21T23:59:02.766Z,10.93
